createdAt,value
2019-05-23T00:00:04.790Z,23.84
2019-05-23T00:01:04.844Z,22.69
2019-05-23T00:02:57.847Z,22.41
2019-05-23T00:03:57.886Z,23.08
2019-05-23T00:05:50.884Z,22.69
2019-05-23T00:06:50.931Z,21.36
2019-05-23T00:08:43.912Z,18.98
2019-05-23T00:09:43.963Z,17.82
2019-05-23T00:11:39.820Z,17.16
2019-05-23T00:12:37.011Z,18.30
2019-05-23T00:14:29.990Z,17.63
2019-05-23T00:15:30.050Z,16.77
2019-05-23T00:17:23.069Z,15.06
2019-05-23T00:18:23.090Z,14.39
2019-05-23T00:20:16.073Z,13.72
2019-05-23T00:21:16.131Z,14.48
2019-05-23T00:23:09.144Z,13.24
2019-05-23T00:24:09.172Z,13.15
2019-05-23T00:26:02.153Z,12.68
2019-05-23T00:27:02.211Z,13.53
2019-05-23T00:29:09.019Z,14.29
2019-05-23T00:29:55.250Z,14.29
2019-05-23T00:31:48.258Z,12.87
2019-05-23T00:32:48.295Z,13.06
2019-05-23T00:34:41.275Z,12.01
2019-05-23T00:35:41.332Z,11.05
2019-05-23T00:37:34.345Z,10.96
2019-05-23T00:38:34.364Z,10.39
2019-05-23T00:40:27.350Z,9.62
2019-05-23T00:41:27.408Z,9.81
2019-05-23T00:43:20.425Z,9.91
2019-05-23T00:44:20.454Z,11.53
2019-05-23T00:46:13.430Z,15.16
2019-05-23T00:47:13.489Z,16.87
2019-05-23T00:49:06.490Z,18.59
2019-05-23T00:50:06.531Z,19.25
2019-05-23T00:51:59.551Z,19.44
2019-05-23T00:52:59.575Z,19.54
2019-05-23T00:54:52.557Z,19.73
2019-05-23T00:55:52.618Z,18.96
2019-05-23T00:57:46.145Z,20.11
2019-05-23T00:58:46.194Z,20.68
2019-05-23T01:00:39.171Z,20.01
2019-05-23T01:01:39.203Z,19.91
2019-05-23T01:03:32.201Z,20.87
2019-05-23T01:04:32.248Z,21.16
2019-05-23T01:06:25.251Z,23.72
2019-05-23T01:07:25.287Z,24.29
2019-05-23T01:09:18.304Z,25.15
2019-05-23T01:10:18.629Z,24.01
2019-05-23T01:12:11.307Z,23.34
2019-05-23T01:13:11.364Z,22.29
2019-05-23T01:15:04.365Z,20.96
2019-05-23T01:16:04.472Z,19.62
2019-05-23T01:17:57.412Z,16.38
2019-05-23T01:18:57.442Z,15.24
2019-05-23T01:20:50.423Z,14.95
2019-05-23T01:21:50.484Z,16.48
2019-05-23T01:23:43.493Z,16.58
2019-05-23T01:24:43.530Z,16.38
2019-05-23T01:26:36.508Z,15.71
2019-05-23T01:27:36.565Z,17.43
2019-05-23T01:29:37.471Z,18.57
2019-05-23T01:30:29.609Z,18.38
2019-05-23T01:32:22.591Z,16.19
2019-05-23T01:33:22.649Z,17.61
2019-05-23T01:35:15.666Z,19.71
2019-05-23T01:36:15.685Z,17.71
2019-05-23T01:38:08.684Z,16.66
2019-05-23T01:39:08.724Z,17.23
2019-05-23T01:41:01.715Z,17.52
2019-05-23T01:42:01.770Z,16.66
2019-05-23T01:43:54.782Z,14.85
2019-05-23T01:44:54.811Z,13.04
2019-05-23T01:46:47.790Z,12.38
2019-05-23T01:47:47.855Z,13.33
2019-05-23T01:49:40.877Z,15.42
2019-05-23T01:50:41.159Z,14.18
2019-05-23T01:52:33.866Z,14.76
2019-05-23T01:53:33.927Z,14.66
2019-05-23T01:55:26.936Z,16.19
2019-05-23T01:56:26.971Z,17.90
2019-05-23T01:58:19.984Z,20.09
2019-05-23T01:59:20.011Z,20.47
2019-05-23T02:01:12.992Z,18.95
2019-05-23T02:02:13.052Z,18.09
2019-05-23T02:04:06.046Z,15.61
2019-05-23T02:05:06.086Z,15.80
2019-05-23T02:06:59.091Z,14.28
2019-05-23T02:07:59.122Z,13.62
2019-05-23T02:09:52.104Z,13.14
2019-05-23T02:10:52.456Z,13.14
2019-05-23T02:12:45.158Z,11.99
2019-05-23T02:13:45.200Z,11.32
2019-05-23T02:15:38.200Z,11.23
2019-05-23T02:16:38.238Z,11.04
2019-05-23T02:18:31.247Z,10.08
2019-05-23T02:19:31.284Z,9.52
2019-05-23T02:21:24.258Z,8.94
2019-05-23T02:22:24.313Z,8.85
2019-05-23T02:24:17.321Z,8.09
2019-05-23T02:25:17.355Z,7.32
2019-05-23T02:27:10.337Z,8.28
2019-05-23T02:28:10.395Z,8.47
2019-05-23T02:30:03.410Z,9.52
2019-05-23T02:31:03.445Z,9.33
2019-05-23T02:32:56.447Z,8.09
2019-05-23T02:33:56.475Z,7.32
2019-05-23T02:35:49.456Z,6.66
2019-05-23T02:36:49.515Z,6.56
2019-05-23T02:38:42.528Z,6.27
2019-05-23T02:39:42.553Z,5.71
2019-05-23T02:41:35.533Z,5.61
2019-05-23T02:42:35.590Z,5.51
2019-05-23T02:44:28.605Z,5.99
2019-05-23T02:45:28.634Z,6.95
2019-05-23T02:47:21.619Z,7.14
2019-05-23T02:48:21.795Z,7.42
2019-05-23T02:50:14.677Z,6.09
2019-05-23T02:51:14.717Z,7.51
2019-05-23T02:53:07.692Z,8.18
2019-05-23T02:54:07.749Z,8.18
2019-05-23T02:56:00.744Z,8.18
2019-05-23T02:57:00.790Z,8.37
2019-05-23T02:58:53.812Z,10.75
2019-05-23T02:59:53.870Z,12.27
2019-05-23T03:01:46.866Z,14.47
2019-05-23T03:02:46.900Z,15.03
2019-05-23T03:04:39.883Z,14.65
2019-05-23T03:05:39.938Z,15.23
2019-05-23T03:07:32.942Z,14.56
2019-05-23T03:08:32.975Z,15.23
2019-05-23T03:10:25.976Z,15.80
2019-05-23T03:11:26.015Z,15.32
2019-05-23T03:13:19.023Z,15.61
2019-05-23T03:14:19.117Z,16.37
2019-05-23T03:16:12.028Z,17.70
2019-05-23T03:17:12.086Z,17.22
2019-05-23T03:19:05.084Z,16.37
2019-05-23T03:20:05.124Z,16.65
2019-05-23T03:21:58.105Z,15.61
2019-05-23T03:22:58.164Z,15.61
2019-05-23T03:24:51.158Z,14.18
2019-05-23T03:25:51.198Z,15.23
2019-05-23T03:27:44.192Z,15.80
2019-05-23T03:28:44.235Z,14.93
2019-05-23T03:30:37.229Z,12.74
2019-05-23T03:31:37.269Z,11.60
2019-05-23T03:33:30.271Z,10.46
2019-05-23T03:34:30.310Z,9.61
2019-05-23T03:36:23.297Z,10.65
2019-05-23T03:37:23.347Z,9.99
2019-05-23T03:39:16.364Z,8.08
2019-05-23T03:40:16.391Z,7.32
2019-05-23T03:42:09.390Z,7.51
2019-05-23T03:43:09.429Z,6.75
2019-05-23T03:45:02.426Z,5.90
2019-05-23T03:46:02.464Z,5.51
2019-05-23T03:47:55.481Z,5.99
2019-05-23T03:48:55.504Z,6.94
2019-05-23T03:50:48.483Z,10.36
2019-05-23T03:51:48.541Z,11.70
2019-05-23T03:53:41.541Z,14.28
2019-05-23T03:54:41.582Z,14.47
2019-05-23T03:56:34.566Z,15.51
2019-05-23T03:57:34.621Z,15.70
2019-05-23T03:59:27.641Z,16.46
2019-05-23T04:00:27.656Z,17.03
2019-05-23T04:02:20.667Z,16.75
2019-05-23T04:03:20.707Z,16.56
2019-05-23T04:05:13.707Z,14.93
2019-05-23T04:06:13.739Z,15.03
2019-05-23T04:08:06.715Z,15.51
2019-05-23T04:09:06.775Z,15.99
2019-05-23T04:10:59.773Z,16.37
2019-05-23T04:11:59.815Z,17.13
2019-05-23T04:13:52.814Z,16.46
2019-05-23T04:14:52.859Z,16.46
2019-05-23T04:16:45.846Z,15.99
2019-05-23T04:17:45.902Z,15.70
2019-05-23T04:19:38.899Z,14.28
2019-05-23T04:20:38.939Z,15.23
2019-05-23T04:22:31.923Z,15.13
2019-05-23T04:23:31.972Z,14.08
2019-05-23T04:25:24.983Z,13.23
2019-05-23T04:26:25.015Z,12.08
2019-05-23T04:28:17.993Z,11.90
2019-05-23T04:29:18.049Z,11.61
2019-05-23T04:31:13.129Z,10.66
2019-05-23T04:32:11.086Z,9.89
2019-05-23T04:34:04.068Z,8.85
2019-05-23T04:35:04.194Z,8.09
2019-05-23T04:36:57.212Z,7.32
2019-05-23T04:37:57.162Z,6.95
2019-05-23T04:39:50.144Z,7.14
2019-05-23T04:40:50.209Z,6.95
2019-05-23T04:42:43.211Z,7.99
2019-05-23T04:43:43.240Z,7.99
2019-05-23T04:45:36.243Z,7.80
2019-05-23T04:46:36.281Z,8.09
2019-05-23T04:48:29.292Z,7.71
2019-05-23T04:49:29.329Z,7.90
2019-05-23T04:51:22.307Z,7.71
2019-05-23T04:52:22.387Z,7.71
2019-05-23T04:54:15.361Z,10.75
2019-05-23T04:55:15.457Z,11.71
2019-05-23T04:57:08.914Z,12.19
2019-05-23T04:58:08.946Z,12.47
2019-05-23T05:00:02.206Z,13.71
2019-05-23T05:01:01.991Z,14.28
2019-05-23T05:02:54.978Z,16.47
2019-05-23T05:03:55.037Z,16.09
2019-05-23T05:05:48.049Z,16.47
2019-05-23T05:06:48.075Z,15.72
2019-05-23T05:08:41.068Z,15.34
2019-05-23T05:09:41.114Z,15.43
2019-05-23T05:11:34.112Z,16.67
2019-05-23T05:12:34.151Z,18.19
2019-05-23T05:14:27.171Z,18.01
2019-05-23T05:15:27.192Z,19.05
2019-05-23T05:17:20.176Z,20.30
2019-05-23T05:18:20.234Z,21.92
2019-05-23T05:20:13.236Z,22.59
2019-05-23T05:21:13.273Z,21.16
2019-05-23T05:23:06.282Z,22.02
2019-05-23T05:24:06.339Z,22.49
2019-05-23T05:25:59.303Z,22.49
2019-05-23T05:26:59.359Z,22.88
2019-05-23T05:28:52.365Z,23.73
2019-05-23T05:29:52.398Z,25.54
2019-05-23T05:31:45.405Z,27.16
2019-05-23T05:32:45.864Z,26.97
2019-05-23T05:34:38.445Z,24.89
2019-05-23T05:35:38.484Z,25.65
2019-05-23T05:37:31.490Z,25.94
2019-05-23T05:38:31.530Z,26.22
2019-05-23T05:40:24.522Z,24.32
2019-05-23T05:41:24.565Z,24.03
2019-05-23T05:43:17.570Z,22.50
2019-05-23T05:44:17.614Z,24.79
2019-05-23T05:46:10.594Z,25.95
2019-05-23T05:47:10.656Z,25.95
2019-05-23T05:49:03.673Z,26.04
2019-05-23T05:50:03.709Z,30.43
2019-05-23T05:51:56.704Z,31.87
2019-05-23T05:52:56.747Z,29.59
2019-05-23T05:54:49.754Z,32.26
2019-05-23T05:55:49.786Z,34.55
2019-05-23T05:57:43.282Z,36.85
2019-05-23T05:58:43.340Z,38.18
2019-05-23T06:00:36.341Z,38.01
2019-05-23T06:01:36.383Z,38.68
2019-05-23T06:03:29.387Z,41.75
2019-05-23T06:04:29.423Z,48.16
2019-05-23T06:06:22.409Z,51.15
2019-05-23T06:07:22.474Z,54.39
2019-05-23T06:09:15.472Z,62.01
2019-05-23T06:10:15.519Z,65.36
2019-05-23T06:12:08.507Z,77.92
2019-05-23T06:13:08.554Z,86.34
2019-05-23T06:15:02.143Z,91.66
2019-05-23T06:16:01.599Z,86.45
2019-05-23T06:17:54.597Z,74.95
2019-05-23T06:18:54.642Z,69.49
2019-05-23T06:20:47.646Z,64.56
2019-05-23T06:21:47.687Z,62.59
2019-05-23T06:23:40.693Z,59.59
2019-05-23T06:24:48.387Z,58.95
2019-05-23T06:26:33.739Z,57.71
2019-05-23T06:27:33.790Z,56.65
2019-05-23T06:29:26.796Z,56.10
2019-05-23T06:30:26.849Z,55.26
2019-05-23T06:32:19.847Z,54.58
2019-05-23T06:33:23.652Z,54.02
2019-05-23T06:35:12.924Z,53.63
2019-05-23T06:36:12.974Z,53.75
2019-05-23T06:38:05.974Z,53.27
2019-05-23T06:39:06.043Z,52.20
2019-05-23T06:40:59.062Z,51.18
2019-05-23T06:41:59.110Z,51.57
2019-05-23T06:43:52.138Z,50.53
2019-05-23T06:44:52.185Z,50.07
2019-05-23T06:46:45.203Z,50.77
2019-05-23T06:47:45.265Z,51.45
2019-05-23T06:49:38.295Z,50.58
2019-05-23T06:50:38.348Z,51.43
2019-05-23T06:52:31.367Z,51.69
2019-05-23T06:53:31.419Z,51.72
2019-05-23T06:55:24.434Z,50.82
2019-05-23T06:56:24.494Z,50.41
2019-05-23T06:58:17.515Z,50.63
2019-05-23T06:59:17.574Z,48.90
2019-05-23T07:01:10.606Z,48.07
2019-05-23T07:02:10.656Z,47.98
2019-05-23T07:04:03.664Z,47.88
2019-05-23T07:05:03.730Z,47.34
2019-05-23T07:06:56.760Z,45.73
2019-05-23T07:07:56.868Z,45.64
2019-05-23T07:09:49.835Z,45.25
2019-05-23T07:10:49.890Z,45.44
2019-05-23T07:12:42.915Z,43.90
2019-05-23T07:13:42.970Z,44.66
2019-05-23T07:15:35.994Z,43.98
2019-05-23T07:16:36.048Z,45.22
2019-05-23T07:18:29.071Z,45.54
2019-05-23T07:19:29.130Z,45.81
2019-05-23T07:21:22.172Z,44.60
2019-05-23T07:22:22.224Z,43.36
2019-05-23T07:24:15.242Z,41.49
2019-05-23T07:25:15.314Z,41.02
2019-05-23T07:27:08.393Z,40.01
2019-05-23T07:28:08.453Z,39.54
2019-05-23T07:30:01.767Z,40.16
2019-05-23T07:31:01.539Z,39.54
2019-05-23T07:32:54.576Z,39.47
2019-05-23T07:34:01.834Z,39.14
2019-05-23T07:35:47.636Z,40.56
2019-05-23T07:36:47.714Z,40.66
2019-05-23T07:38:40.744Z,41.09
2019-05-23T07:39:40.804Z,40.99
2019-05-23T07:41:33.838Z,41.95
2019-05-23T07:42:33.894Z,42.48
2019-05-23T07:44:26.932Z,41.36
2019-05-23T07:45:26.987Z,40.63
2019-05-23T07:47:20.043Z,40.09
2019-05-23T07:48:20.095Z,40.29
2019-05-23T07:50:13.102Z,41.13
2019-05-23T07:51:13.195Z,41.89
2019-05-23T07:53:06.219Z,40.72
2019-05-23T07:54:06.275Z,41.13
2019-05-23T07:55:59.326Z,40.68
2019-05-23T07:56:59.421Z,40.48
2019-05-23T07:58:52.381Z,39.02
2019-05-23T07:59:52.452Z,38.96
2019-05-23T08:01:45.495Z,37.74
2019-05-23T08:02:45.554Z,37.76
2019-05-23T08:04:38.587Z,36.98
2019-05-23T08:05:38.645Z,36.19
2019-05-23T08:07:32.872Z,35.70
2019-05-23T08:08:31.737Z,36.01
2019-05-23T08:10:33.685Z,34.80
2019-05-23T08:11:24.835Z,34.18
2019-05-23T08:13:17.859Z,35.03
2019-05-23T08:14:17.932Z,34.58
2019-05-23T08:16:10.971Z,32.98
2019-05-23T08:17:11.044Z,33.12
2019-05-23T08:19:04.063Z,32.86
2019-05-23T08:20:04.144Z,32.97
2019-05-23T08:21:57.174Z,32.90
2019-05-23T08:22:57.241Z,34.72
2019-05-23T08:24:51.358Z,35.03
2019-05-23T08:25:50.353Z,33.22
2019-05-23T08:27:43.399Z,31.11
2019-05-23T08:29:00.941Z,30.65
2019-05-23T08:30:36.495Z,30.75
2019-05-23T08:31:36.553Z,30.34
2019-05-23T08:33:29.604Z,31.84
2019-05-23T08:34:41.506Z,32.82
2019-05-23T08:36:22.696Z,32.98
2019-05-23T08:37:22.761Z,35.06
2019-05-23T08:39:15.809Z,34.42
2019-05-23T08:40:15.878Z,35.44
2019-05-23T08:42:08.902Z,33.70
2019-05-23T08:43:09.036Z,33.79
2019-05-23T08:45:02.058Z,34.25
2019-05-23T08:46:02.281Z,34.05
2019-05-23T08:47:55.115Z,32.98
2019-05-23T08:48:55.197Z,30.96
2019-05-23T08:50:51.358Z,33.22
2019-05-23T08:51:48.307Z,32.87
2019-05-23T08:53:41.358Z,32.54
2019-05-23T08:54:41.410Z,30.12
2019-05-23T08:56:34.435Z,31.60
2019-05-23T08:57:34.574Z,31.82
2019-05-23T08:59:27.566Z,31.54
2019-05-23T09:00:27.658Z,33.05
2019-05-23T09:02:20.658Z,31.76
2019-05-23T09:03:20.725Z,32.82
2019-05-23T09:05:13.786Z,35.11
2019-05-23T09:06:13.839Z,35.28
2019-05-23T09:08:06.887Z,35.66
2019-05-23T09:09:27.809Z,36.73
2019-05-23T09:10:59.973Z,35.55
2019-05-23T09:12:00.051Z,35.95
2019-05-23T09:13:53.088Z,34.52
2019-05-23T09:14:53.149Z,34.62
2019-05-23T09:16:46.204Z,34.65
2019-05-23T09:17:53.146Z,33.39
2019-05-23T09:19:39.297Z,32.68
2019-05-23T09:20:39.358Z,33.75
2019-05-23T09:22:32.388Z,35.35
2019-05-23T09:23:32.469Z,36.05
2019-05-23T09:25:25.513Z,34.72
2019-05-23T09:26:25.563Z,33.53
2019-05-23T09:28:18.603Z,33.11
2019-05-23T09:29:18.668Z,33.17
2019-05-23T09:31:11.687Z,34.84
2019-05-23T09:32:11.767Z,37.54
2019-05-23T09:34:04.803Z,38.40
2019-05-23T09:35:19.631Z,39.75
2019-05-23T09:37:00.263Z,41.06
2019-05-23T09:37:57.950Z,40.29
2019-05-23T09:39:50.997Z,38.83
2019-05-23T09:40:51.053Z,40.19
2019-05-23T09:42:44.064Z,41.51
2019-05-23T09:43:44.120Z,42.57
2019-05-23T09:45:37.131Z,43.84
2019-05-23T09:46:37.204Z,42.65
2019-05-23T09:48:30.233Z,43.13
2019-05-23T09:49:30.289Z,42.65
2019-05-23T09:51:23.342Z,45.07
2019-05-23T09:52:23.370Z,45.27
2019-05-23T09:54:16.461Z,43.72
2019-05-23T09:55:16.473Z,43.91
2019-05-23T09:57:09.455Z,43.43
2019-05-23T09:58:09.523Z,41.86
2019-05-23T10:00:02.658Z,44.35
2019-05-23T10:01:02.602Z,42.61
2019-05-23T10:02:55.605Z,45.13
2019-05-23T10:03:55.677Z,43.96
2019-05-23T10:05:48.695Z,44.06
2019-05-23T10:06:48.767Z,43.96
2019-05-23T10:08:41.790Z,45.01
2019-05-23T10:09:41.832Z,44.53
2019-05-23T10:11:34.869Z,44.04
2019-05-23T10:12:34.902Z,45.01
2019-05-23T10:14:27.901Z,43.75
2019-05-23T10:15:28.002Z,44.02
2019-05-23T10:17:20.991Z,44.89
2019-05-23T10:18:21.045Z,44.98
2019-05-23T10:20:14.081Z,45.95
2019-05-23T10:21:14.111Z,44.33
2019-05-23T10:23:07.155Z,43.85
2019-05-23T10:24:07.175Z,42.88
2019-05-23T10:26:00.249Z,45.66
2019-05-23T10:27:00.250Z,46.83
2019-05-23T10:28:53.252Z,46.83
2019-05-23T10:29:53.317Z,45.28
2019-05-23T10:31:46.335Z,46.92
2019-05-23T10:32:46.391Z,45.08
2019-05-23T10:34:39.392Z,44.40
2019-05-23T10:35:39.460Z,45.08
2019-05-23T10:37:32.478Z,46.03
2019-05-23T10:38:32.524Z,46.83
2019-05-23T10:40:25.532Z,48.08
2019-05-23T10:41:25.594Z,45.76
2019-05-23T10:43:18.611Z,45.28
2019-05-23T10:44:18.666Z,44.89
2019-05-23T10:46:11.684Z,43.05
2019-05-23T10:47:11.733Z,42.78
2019-05-23T10:49:04.757Z,42.57
2019-05-23T10:50:08.462Z,42.47
2019-05-23T10:51:57.812Z,42.18
2019-05-23T10:52:57.873Z,45.08
2019-05-23T10:54:50.896Z,44.50
2019-05-23T10:55:50.972Z,44.98
2019-05-23T10:57:44.459Z,43.92
2019-05-23T10:58:44.524Z,44.89
2019-05-23T11:00:37.536Z,42.66
2019-05-23T11:01:37.591Z,41.99
2019-05-23T11:03:30.594Z,45.18
2019-05-23T11:04:30.658Z,45.18
2019-05-23T11:06:23.680Z,47.04
2019-05-23T11:07:23.728Z,44.40
2019-05-23T11:09:16.748Z,45.59
2019-05-23T11:10:16.796Z,45.28
2019-05-23T11:12:09.844Z,44.98
2019-05-23T11:13:09.875Z,44.40
2019-05-23T11:15:03.381Z,43.63
2019-05-23T11:16:03.442Z,44.89
2019-05-23T11:17:56.996Z,43.73
2019-05-23T11:18:56.514Z,43.15
2019-05-23T11:20:49.535Z,42.57
2019-05-23T11:21:49.625Z,44.02
2019-05-23T11:23:42.592Z,44.40
2019-05-23T11:24:42.690Z,44.40
2019-05-23T11:26:35.654Z,45.37
2019-05-23T11:27:35.711Z,46.84
2019-05-23T11:29:28.728Z,43.73
2019-05-23T11:30:28.776Z,43.34
2019-05-23T11:32:21.777Z,44.84
2019-05-23T11:33:21.842Z,44.94
2019-05-23T11:35:14.861Z,44.65
2019-05-23T11:36:14.914Z,45.25
2019-05-23T11:38:07.931Z,45.33
2019-05-23T11:39:07.976Z,46.12
2019-05-23T11:41:00.996Z,46.03
2019-05-23T11:42:01.043Z,45.83
2019-05-23T11:43:54.060Z,43.92
2019-05-23T11:44:54.106Z,43.92
2019-05-23T11:46:47.135Z,44.98
2019-05-23T11:47:47.173Z,45.08
2019-05-23T11:49:40.344Z,45.47
2019-05-23T11:50:40.261Z,45.08
2019-05-23T11:52:33.272Z,44.89
2019-05-23T11:53:33.326Z,45.76
2019-05-23T11:55:26.347Z,44.98
2019-05-23T11:56:26.384Z,43.54
2019-05-23T11:58:19.436Z,45.66
2019-05-23T11:59:19.459Z,45.59
2019-05-23T12:01:20.674Z,44.33
2019-05-23T12:02:12.518Z,43.73
2019-05-23T12:04:05.519Z,46.84
2019-05-23T12:05:05.582Z,45.01
2019-05-23T12:06:58.611Z,45.01
2019-05-23T12:07:58.645Z,44.23
2019-05-23T12:09:51.655Z,42.88
2019-05-23T12:10:51.712Z,42.20
2019-05-23T12:12:44.731Z,43.65
2019-05-23T12:13:44.782Z,43.07
2019-05-23T12:15:38.311Z,42.49
2019-05-23T12:16:38.362Z,42.13
2019-05-23T12:18:31.361Z,43.00
2019-05-23T12:19:31.429Z,44.93
2019-05-23T12:21:24.443Z,44.35
2019-05-23T12:22:24.491Z,43.38
2019-05-23T12:24:17.496Z,43.95
2019-05-23T12:25:22.596Z,43.37
2019-05-23T12:27:10.585Z,42.97
2019-05-23T12:28:10.630Z,44.21
2019-05-23T12:30:03.632Z,43.27
2019-05-23T12:31:03.702Z,43.07
2019-05-23T12:32:56.718Z,45.18
2019-05-23T12:33:56.765Z,45.08
2019-05-23T12:35:49.768Z,44.98
2019-05-23T12:36:49.838Z,43.90
2019-05-23T12:38:42.879Z,43.80
2019-05-23T12:39:42.903Z,43.73
2019-05-23T12:41:35.929Z,46.34
2019-05-23T12:42:35.974Z,44.23
2019-05-23T12:44:28.998Z,44.54
2019-05-23T12:45:29.037Z,46.00
2019-05-23T12:47:22.039Z,43.77
2019-05-23T12:48:22.108Z,42.90
2019-05-23T12:50:15.125Z,43.38
2019-05-23T12:51:15.172Z,42.61
2019-05-23T12:53:08.176Z,42.88
2019-05-23T12:54:08.260Z,43.85
2019-05-23T12:56:01.266Z,44.89
2019-05-23T12:57:01.306Z,45.20
2019-05-23T12:58:54.308Z,45.40
2019-05-23T12:59:54.369Z,45.01
2019-05-23T13:01:47.396Z,42.88
2019-05-23T13:02:47.442Z,43.38
2019-05-23T13:04:40.453Z,45.10
2019-05-23T13:05:40.509Z,43.75
2019-05-23T13:07:36.623Z,44.13
2019-05-23T13:08:33.572Z,44.02
2019-05-23T13:10:26.605Z,45.10
2019-05-23T13:11:26.675Z,44.91
2019-05-23T13:13:19.641Z,43.65
2019-05-23T13:14:19.724Z,44.43
2019-05-23T13:16:12.725Z,44.53
2019-05-23T13:17:12.773Z,44.23
2019-05-23T13:19:05.796Z,44.13
2019-05-23T13:20:05.845Z,44.13
2019-05-23T13:21:58.860Z,45.13
2019-05-23T13:22:58.957Z,45.22
2019-05-23T13:24:53.463Z,44.16
2019-05-23T13:25:52.013Z,44.35
2019-05-23T13:27:44.976Z,43.95
2019-05-23T13:28:45.042Z,44.62
2019-05-23T13:30:38.067Z,43.75
2019-05-23T13:31:38.107Z,43.85
2019-05-23T13:33:31.110Z,43.44
2019-05-23T13:34:31.174Z,45.66
2019-05-23T13:36:24.191Z,45.08
2019-05-23T13:37:24.242Z,45.37
2019-05-23T13:39:17.267Z,45.37
2019-05-23T13:40:17.308Z,45.18
2019-05-23T13:42:10.328Z,44.91
2019-05-23T13:43:10.383Z,45.13
2019-05-23T13:45:03.404Z,43.96
2019-05-23T13:46:03.447Z,42.90
2019-05-23T13:47:56.469Z,44.35
2019-05-23T13:48:56.510Z,44.16
2019-05-23T13:50:49.524Z,41.83
2019-05-23T13:51:49.578Z,41.04
2019-05-23T13:53:42.574Z,42.68
2019-05-23T13:54:42.647Z,43.27
2019-05-23T13:56:35.755Z,43.34
2019-05-23T13:57:35.739Z,42.76
2019-05-23T13:59:28.731Z,41.89
2019-05-23T14:00:28.778Z,42.66
2019-05-23T14:02:21.794Z,43.54
2019-05-23T14:03:21.850Z,42.86
2019-05-23T14:05:18.956Z,43.54
2019-05-23T14:06:15.426Z,44.98
2019-05-23T14:08:12.795Z,44.98
2019-05-23T14:09:08.479Z,44.89
2019-05-23T14:11:01.993Z,44.33
2019-05-23T14:12:21.767Z,45.68
2019-05-23T14:14:00.241Z,43.95
2019-05-23T14:14:55.121Z,44.33
2019-05-23T14:16:48.134Z,43.38
2019-05-23T14:17:48.186Z,43.87
2019-05-23T14:19:41.203Z,42.90
2019-05-23T14:20:41.251Z,43.09
2019-05-23T14:22:34.252Z,42.51
2019-05-23T14:23:34.315Z,42.61
2019-05-23T14:25:27.331Z,43.19
2019-05-23T14:26:27.378Z,43.17
2019-05-23T14:28:20.410Z,44.23
2019-05-23T14:29:20.466Z,43.65
2019-05-23T14:31:13.496Z,44.04
2019-05-23T14:32:13.582Z,43.85
2019-05-23T14:34:06.610Z,45.20
2019-05-23T14:35:06.600Z,44.21
2019-05-23T14:36:59.658Z,43.82
2019-05-23T14:37:59.668Z,44.70
2019-05-23T14:39:52.684Z,45.08
2019-05-23T14:40:52.746Z,44.02
2019-05-23T14:42:45.808Z,43.82
2019-05-23T14:43:45.802Z,44.02
2019-05-23T14:45:38.820Z,44.33
2019-05-23T14:46:38.873Z,46.26
2019-05-23T14:48:31.887Z,46.26
2019-05-23T14:49:31.934Z,44.91
2019-05-23T14:51:24.959Z,44.31
2019-05-23T14:52:25.001Z,45.28
2019-05-23T14:54:18.020Z,46.34
2019-05-23T14:55:18.065Z,45.28
2019-05-23T14:57:11.214Z,44.98
2019-05-23T14:58:11.135Z,44.89
2019-05-23T15:00:04.155Z,46.73
2019-05-23T15:01:04.199Z,44.98
2019-05-23T15:02:57.192Z,44.98
2019-05-23T15:03:57.257Z,45.28
2019-05-23T15:05:50.277Z,47.11
2019-05-23T15:06:50.321Z,45.18
2019-05-23T15:08:51.200Z,44.70
2019-05-23T15:09:43.383Z,44.23
2019-05-23T15:11:36.398Z,46.94
2019-05-23T15:12:36.446Z,46.17
2019-05-23T15:14:29.487Z,46.75
2019-05-23T15:15:29.509Z,45.78
2019-05-23T15:17:22.527Z,46.94
2019-05-23T15:18:22.570Z,48.30
2019-05-23T15:20:15.605Z,46.34
2019-05-23T15:21:15.637Z,46.53
2019-05-23T15:23:08.679Z,45.76
2019-05-23T15:24:08.700Z,45.76
2019-05-23T15:26:01.701Z,47.43
2019-05-23T15:27:01.764Z,47.11
2019-05-23T15:28:54.787Z,47.81
2019-05-23T15:29:54.830Z,47.24
2019-05-23T15:32:01.887Z,49.27
2019-05-23T15:32:47.895Z,48.49
2019-05-23T15:34:40.913Z,47.43
2019-05-23T15:35:40.981Z,48.01
2019-05-23T15:37:33.971Z,48.01
2019-05-23T15:38:34.037Z,47.91
2019-05-23T15:40:27.085Z,47.21
2019-05-23T15:41:27.119Z,47.50
2019-05-23T15:43:20.098Z,47.50
2019-05-23T15:44:26.968Z,48.18
2019-05-23T15:46:13.198Z,47.41
2019-05-23T15:47:13.277Z,46.44
2019-05-23T15:49:06.260Z,47.31
2019-05-23T15:50:10.913Z,47.02
2019-05-23T15:51:59.379Z,48.18
2019-05-23T15:52:59.383Z,47.38
2019-05-23T15:54:52.397Z,48.25
2019-05-23T15:55:52.446Z,47.19
2019-05-23T15:57:45.449Z,48.16
2019-05-23T15:58:45.517Z,49.02
2019-05-23T16:00:38.543Z,48.81
2019-05-23T16:01:38.592Z,49.29
2019-05-23T16:03:31.808Z,48.81
2019-05-23T16:04:31.666Z,48.13
2019-05-23T16:06:24.694Z,47.74
2019-05-23T16:07:24.727Z,47.84
2019-05-23T16:09:29.248Z,49.58
2019-05-23T16:10:17.793Z,49.10
2019-05-23T16:12:10.810Z,49.00
2019-05-23T16:13:10.856Z,49.87
2019-05-23T16:15:03.870Z,49.77
2019-05-23T16:16:03.924Z,50.26
2019-05-23T16:17:56.942Z,49.97
2019-05-23T16:18:56.982Z,48.23
2019-05-23T16:20:49.984Z,47.94
2019-05-23T16:21:50.048Z,47.96
2019-05-23T16:23:43.066Z,49.02
2019-05-23T16:24:43.112Z,48.71
2019-05-23T16:26:36.121Z,48.71
2019-05-23T16:27:36.195Z,48.52
2019-05-23T16:29:29.211Z,48.71
2019-05-23T16:30:29.243Z,49.00
2019-05-23T16:32:22.258Z,50.45
2019-05-23T16:33:22.307Z,49.95
2019-05-23T16:35:15.334Z,50.04
2019-05-23T16:36:15.380Z,49.75
2019-05-23T16:38:08.415Z,48.49
2019-05-23T16:39:08.448Z,49.00
2019-05-23T16:41:01.470Z,48.69
2019-05-23T16:42:01.509Z,50.04
2019-05-23T16:43:54.512Z,50.13
2019-05-23T16:44:54.577Z,49.75
2019-05-23T16:46:47.590Z,50.04
2019-05-23T16:47:47.633Z,48.97
2019-05-23T16:49:40.634Z,49.75
2019-05-23T16:50:40.700Z,50.23
2019-05-23T16:52:34.245Z,50.23
2019-05-23T16:53:35.976Z,50.13
2019-05-23T16:55:27.262Z,51.49
2019-05-23T16:56:27.423Z,51.49
2019-05-23T16:58:20.359Z,50.04
2019-05-23T16:59:20.394Z,51.59
2019-05-23T17:01:23.568Z,49.75
2019-05-23T17:02:13.451Z,49.85
2019-05-23T17:04:06.517Z,50.23
2019-05-23T17:05:10.514Z,50.52
2019-05-23T17:06:59.513Z,50.33
2019-05-23T17:08:03.820Z,51.29
2019-05-23T17:10:07.781Z,51.29
2019-05-23T17:10:52.639Z,51.49
2019-05-23T17:12:45.653Z,51.68
2019-05-23T17:13:45.707Z,51.39
2019-05-23T17:15:38.708Z,50.04
2019-05-23T17:16:38.762Z,50.71
2019-05-23T17:18:31.774Z,50.13
2019-05-23T17:19:31.826Z,50.33
2019-05-23T17:21:24.889Z,51.29
2019-05-23T17:22:24.912Z,51.10
2019-05-23T17:24:17.983Z,51.37
2019-05-23T17:25:17.988Z,50.33
2019-05-23T17:27:11.057Z,51.01
2019-05-23T17:28:11.077Z,51.07
2019-05-23T17:30:08.015Z,51.10
2019-05-23T17:31:04.107Z,50.81
2019-05-23T17:32:57.119Z,50.50
2019-05-23T17:33:57.163Z,50.31
2019-05-23T17:35:50.188Z,50.69
2019-05-23T17:36:50.267Z,52.43
2019-05-23T17:38:43.232Z,50.98
2019-05-23T17:39:43.294Z,51.65
2019-05-23T17:41:36.298Z,51.75
2019-05-23T17:42:36.344Z,51.75
2019-05-23T17:44:29.375Z,50.98
2019-05-23T17:45:29.405Z,52.23
2019-05-23T17:47:22.485Z,51.07
2019-05-23T17:48:22.458Z,51.07
2019-05-23T17:50:15.463Z,50.89
2019-05-23T17:51:15.526Z,51.27
2019-05-23T17:53:08.541Z,51.07
2019-05-23T17:54:08.589Z,51.05
2019-05-23T17:56:01.606Z,51.53
2019-05-23T17:57:01.649Z,52.21
2019-05-23T17:58:54.650Z,52.98
2019-05-23T17:59:54.710Z,52.31
2019-05-23T18:01:47.725Z,52.50
2019-05-23T18:02:47.769Z,53.44
2019-05-23T18:04:40.769Z,54.11
2019-05-23T18:05:40.831Z,54.11
2019-05-23T18:07:33.834Z,53.05
2019-05-23T18:08:33.898Z,53.25
2019-05-23T18:10:43.279Z,54.11
2019-05-23T18:11:26.959Z,53.44
2019-05-23T18:13:19.976Z,54.66
2019-05-23T18:14:20.022Z,54.50
2019-05-23T18:16:13.035Z,53.99
2019-05-23T18:17:13.078Z,53.89
2019-05-23T18:19:06.073Z,54.09
2019-05-23T18:20:06.141Z,53.99
2019-05-23T18:21:59.155Z,54.38
2019-05-23T18:22:59.204Z,55.05
2019-05-23T18:24:52.223Z,54.09
2019-05-23T18:25:52.369Z,54.09
2019-05-23T18:27:45.276Z,55.63
2019-05-23T18:28:45.321Z,55.54
2019-05-23T18:30:38.338Z,56.30
2019-05-23T18:31:38.375Z,55.51
2019-05-23T18:33:31.401Z,55.79
2019-05-23T18:34:31.437Z,55.51
2019-05-23T18:36:24.427Z,55.70